createdAt,value
2023-04-18T05:44:40.865Z,87.21
2023-04-18T05:47:28.627Z,87.21
2023-04-18T05:50:14.315Z,89.15
2023-04-18T05:52:59.699Z,88.93
2023-04-18T05:55:46.724Z,88.65
2023-04-18T05:58:32.057Z,88.35
2023-04-18T06:01:20.294Z,88.41
2023-04-18T06:04:05.626Z,88.63
2023-04-18T06:06:51.501Z,88.75
2023-04-18T06:09:37.324Z,89.07
2023-04-18T06:12:22.909Z,88.66
2023-04-18T06:15:08.924Z,88.14
2023-04-18T06:18:01.772Z,88.02
2023-04-18T06:20:47.335Z,87.45
2023-04-18T06:23:33.861Z,86.78
2023-04-18T06:26:19.556Z,86.24
2023-04-18T06:29:04.853Z,85.73
2023-04-18T06:31:52.051Z,84.76
2023-04-18T06:34:38.475Z,84.66
2023-04-18T06:37:24.665Z,84.87
2023-04-18T06:40:13.837Z,85.72
2023-04-18T06:43:00.362Z,85.69
2023-04-18T06:45:45.798Z,86.06
2023-04-18T06:48:32.035Z,86.46
2023-04-18T06:51:21.345Z,86.69
2023-04-18T06:54:07.144Z,86.63
2023-04-18T06:56:59.463Z,86.42
2023-04-18T06:59:44.994Z,86.00
2023-04-18T07:02:30.771Z,85.64
2023-04-18T07:05:16.436Z,85.22
2023-04-18T07:08:03.285Z,84.77
2023-04-18T07:10:48.495Z,84.70
2023-04-18T07:13:34.161Z,84.76
2023-04-18T07:16:21.029Z,85.16
2023-04-18T07:19:06.842Z,85.02
2023-04-18T07:21:52.400Z,84.53
2023-04-18T07:24:39.513Z,84.54
2023-04-18T07:27:24.873Z,84.60
2023-04-18T07:30:10.858Z,83.88
2023-04-18T07:32:57.164Z,83.59
2023-04-18T07:35:46.171Z,83.46
2023-04-18T07:38:35.537Z,83.69
2023-04-18T07:41:21.332Z,83.31
2023-04-18T07:44:07.929Z,82.92
2023-04-18T07:46:53.274Z,82.75
2023-04-18T07:49:38.965Z,82.49
2023-04-18T07:52:25.124Z,82.74
2023-04-18T07:55:14.076Z,82.28
2023-04-18T07:58:00.819Z,82.78
2023-04-18T08:00:46.436Z,81.99
2023-04-18T08:03:33.762Z,82.13
2023-04-18T08:06:19.643Z,82.33
2023-04-18T08:09:06.159Z,82.31
2023-04-18T08:11:51.823Z,81.99
2023-04-18T08:14:38.722Z,81.30
2023-04-18T08:17:23.912Z,79.83
2023-04-18T08:20:10.943Z,79.15
2023-04-18T08:23:05.618Z,77.29
2023-04-18T08:25:54.138Z,76.42
2023-04-18T08:28:41.217Z,74.24
2023-04-18T08:31:29.885Z,73.27
2023-04-18T08:34:15.489Z,73.06
2023-04-18T08:37:01.113Z,72.44
2023-04-18T08:39:46.544Z,71.07
2023-04-18T08:42:34.242Z,69.06
2023-04-18T08:45:22.666Z,67.97
2023-04-18T08:48:16.539Z,68.11
2023-04-18T08:51:03.184Z,68.13
2023-04-18T08:53:50.772Z,68.04
2023-04-18T08:56:37.859Z,69.34
2023-04-18T08:59:25.447Z,70.96
2023-04-18T09:02:12.410Z,72.35
2023-04-18T09:04:57.892Z,75.16
2023-04-18T09:07:43.394Z,77.37
2023-04-18T09:10:33.864Z,78.63
2023-04-18T09:13:39.790Z,79.22
2023-04-18T09:16:27.485Z,79.95
2023-04-18T09:19:18.153Z,79.95
2023-04-18T09:22:04.950Z,81.42
2023-04-18T09:24:53.889Z,80.49
2023-04-18T09:27:40.915Z,81.21
2023-04-18T09:30:40.678Z,80.57
2023-04-18T09:33:28.468Z,80.07
2023-04-18T09:36:27.128Z,80.00
2023-04-18T09:39:31.152Z,80.43
2023-04-18T09:42:17.508Z,80.54
2023-04-18T09:45:05.501Z,80.78
2023-04-18T09:47:51.630Z,80.43
2023-04-18T09:50:39.620Z,79.08
2023-04-18T09:53:25.653Z,77.50
2023-04-18T09:56:27.351Z,73.92
2023-04-18T09:59:16.031Z,71.59
2023-04-18T10:02:03.659Z,71.10
2023-04-18T10:04:54.582Z,70.45
2023-04-18T10:07:42.095Z,70.14
2023-04-18T10:10:27.239Z,69.76
2023-04-18T10:13:14.218Z,70.84
2023-04-18T10:16:03.037Z,71.08
2023-04-18T10:18:50.083Z,70.57
2023-04-18T10:21:35.908Z,71.48
2023-04-18T10:24:56.378Z,71.44
2023-04-18T10:27:48.199Z,70.87
2023-04-18T10:30:44.325Z,70.14
2023-04-18T10:33:35.838Z,70.48
2023-04-18T10:36:28.537Z,70.12
2023-04-18T10:39:22.351Z,70.60
2023-04-18T10:42:08.274Z,72.19
2023-04-18T10:45:25.067Z,73.05
2023-04-18T10:48:29.724Z,73.40
2023-04-18T10:51:21.067Z,73.54
2023-04-18T10:54:21.221Z,72.57
2023-04-18T10:57:16.172Z,73.15
2023-04-18T11:00:01.664Z,73.63
2023-04-18T11:02:57.796Z,74.54
2023-04-18T11:05:44.391Z,74.91
2023-04-18T11:08:30.302Z,75.42
2023-04-18T11:11:16.142Z,76.06
2023-04-18T11:14:01.561Z,76.67
2023-04-18T11:16:47.047Z,77.30
2023-04-18T11:19:32.488Z,77.75
2023-04-18T11:22:19.461Z,78.49
2023-04-18T11:25:09.269Z,78.47
2023-04-18T11:27:57.326Z,79.59
2023-04-18T11:30:42.850Z,79.56
2023-04-18T11:33:29.562Z,80.18
2023-04-18T11:36:15.470Z,80.24
2023-04-18T11:39:01.092Z,80.93
2023-04-18T11:41:50.557Z,80.96
2023-04-18T11:44:39.847Z,81.72
2023-04-18T11:47:26.918Z,82.90
2023-04-18T11:50:13.995Z,84.74
2023-04-18T11:52:59.355Z,85.70
2023-04-18T11:55:55.053Z,85.92
2023-04-18T11:58:40.323Z,86.20
2023-04-18T12:01:27.140Z,86.33
2023-04-18T12:04:12.918Z,86.56
2023-04-18T12:06:58.899Z,85.83
2023-04-18T12:09:44.378Z,84.93
2023-04-18T12:12:29.847Z,84.73
2023-04-18T12:15:16.784Z,84.06
2023-04-18T12:18:05.033Z,84.23
2023-04-18T12:20:52.650Z,85.60
2023-04-18T12:23:40.408Z,85.54
2023-04-18T12:26:26.796Z,86.22
2023-04-18T12:29:13.713Z,86.58
2023-04-18T12:31:59.330Z,87.12
